createdAt,value
2019-05-18T00:00:11.191Z,7.87
2019-05-18T00:02:41.410Z,7.20
2019-05-18T00:05:11.354Z,5.90
2019-05-18T00:07:42.004Z,6.43
2019-05-18T00:10:12.254Z,6.50
2019-05-18T00:12:42.179Z,7.30
2019-05-18T00:15:12.326Z,7.40
2019-05-18T00:17:42.480Z,8.10
2019-05-18T00:20:12.495Z,7.07
2019-05-18T00:22:42.193Z,6.60
2019-05-18T00:25:12.226Z,6.37
2019-05-18T00:27:41.945Z,7.40
2019-05-18T00:30:11.891Z,8.67
2019-05-18T00:32:41.955Z,7.87
2019-05-18T00:35:12.214Z,8.07
2019-05-18T00:37:41.996Z,7.90
2019-05-18T00:40:11.967Z,8.77
2019-05-18T00:42:41.839Z,7.37
2019-05-18T00:45:12.475Z,6.70
2019-05-18T00:47:42.558Z,7.57
2019-05-18T00:50:12.787Z,8.97
2019-05-18T00:52:42.691Z,7.20
2019-05-18T00:55:12.690Z,7.03
2019-05-18T00:57:42.585Z,7.60
2019-05-18T01:00:14.066Z,7.80
2019-05-18T01:02:44.238Z,6.87
2019-05-18T01:05:14.779Z,7.03
2019-05-18T01:07:44.541Z,7.37
2019-05-18T01:10:14.720Z,7.50
2019-05-18T01:12:44.628Z,8.00
2019-05-18T01:15:15.101Z,8.23
2019-05-18T01:17:56.995Z,7.80
2019-05-18T01:20:17.329Z,7.93
2019-05-18T01:22:47.595Z,7.97
2019-05-18T01:25:17.401Z,7.67
2019-05-18T01:27:47.174Z,7.87
2019-05-18T01:30:17.472Z,8.00
2019-05-18T01:32:47.586Z,7.40
2019-05-18T01:35:17.720Z,7.40
2019-05-18T01:37:47.414Z,7.07
2019-05-18T01:40:17.443Z,7.70
2019-05-18T01:42:47.133Z,7.30
2019-05-18T01:45:17.895Z,7.33
2019-05-18T01:47:47.947Z,7.63
2019-05-18T01:50:17.891Z,7.90
2019-05-18T01:52:47.678Z,8.27
2019-05-18T01:55:17.532Z,8.13
2019-05-18T01:57:47.403Z,8.30
2019-05-18T02:00:17.515Z,8.93
2019-05-18T02:02:47.669Z,9.47
2019-05-18T02:05:17.535Z,9.87
2019-05-18T02:07:47.339Z,9.90
2019-05-18T02:10:17.862Z,10.20
2019-05-18T02:12:50.134Z,9.37
2019-05-18T02:15:20.675Z,10.00
2019-05-18T02:17:50.741Z,9.53
2019-05-18T02:20:20.598Z,9.23
2019-05-18T02:22:50.878Z,8.87
2019-05-18T02:25:20.765Z,9.23
2019-05-18T02:27:51.532Z,9.27
2019-05-18T02:30:21.807Z,9.37
2019-05-18T02:32:51.546Z,9.87
2019-05-18T02:35:21.618Z,9.40
2019-05-18T02:37:51.366Z,9.60
2019-05-18T02:40:21.494Z,9.67
2019-05-18T02:42:51.249Z,9.13
2019-05-18T02:45:24.245Z,9.03
2019-05-18T02:47:54.022Z,9.53
2019-05-18T02:50:23.929Z,9.37
2019-05-18T02:52:54.859Z,9.97
2019-05-18T02:55:25.220Z,9.93
2019-05-18T02:57:55.140Z,9.80
2019-05-18T03:00:28.323Z,9.47
2019-05-18T03:02:58.230Z,9.90
2019-05-18T03:05:28.211Z,9.90
2019-05-18T03:07:57.985Z,10.33
2019-05-18T03:10:27.823Z,9.23
2019-05-18T03:12:57.563Z,10.13
2019-05-18T03:15:27.706Z,10.30
2019-05-18T03:17:57.738Z,10.60
2019-05-18T03:20:27.733Z,10.70
2019-05-18T03:22:57.605Z,10.13
2019-05-18T03:25:27.542Z,11.27
2019-05-18T03:27:57.347Z,10.43
2019-05-18T03:30:27.171Z,10.47
2019-05-18T03:32:57.118Z,10.70
2019-05-18T03:35:27.491Z,10.50
2019-05-18T03:37:57.611Z,11.53
2019-05-18T03:40:27.371Z,11.10
2019-05-18T03:42:59.200Z,10.20
2019-05-18T03:45:30.408Z,11.13
2019-05-18T03:48:00.123Z,11.27
2019-05-18T03:50:30.047Z,11.23
2019-05-18T03:52:59.828Z,11.13
2019-05-18T03:55:31.098Z,12.10
2019-05-18T03:58:01.100Z,11.53
2019-05-18T04:00:34.392Z,12.33
2019-05-18T04:03:03.464Z,13.20
2019-05-18T04:05:33.472Z,11.80
2019-05-18T04:08:03.679Z,13.40
2019-05-18T04:10:33.369Z,12.17
2019-05-18T04:13:23.393Z,12.77
2019-05-18T04:16:05.494Z,12.43
2019-05-18T04:18:46.940Z,13.00
2019-05-18T04:21:29.107Z,13.40
2019-05-18T04:23:58.854Z,13.30
2019-05-18T04:30:03.173Z,13.60
2019-05-18T04:32:52.162Z,13.90
2019-05-18T04:35:41.096Z,14.50
2019-05-18T04:38:30.007Z,13.80
2019-05-18T04:44:33.214Z,15.10
2019-05-18T04:53:49.339Z,15.33
2019-05-18T04:56:42.148Z,18.73
2019-05-18T05:02:56.339Z,16.67
2019-05-18T05:05:45.279Z,17.37
2019-05-18T05:11:35.442Z,17.57
2019-05-18T05:14:17.560Z,15.77
2019-05-18T05:16:58.799Z,15.40
2019-05-18T05:19:40.865Z,14.33
2019-05-18T05:22:22.178Z,13.33
2019-05-18T05:25:03.498Z,12.83
2019-05-18T05:27:45.736Z,12.57
2019-05-18T05:30:27.547Z,12.00
2019-05-18T05:33:09.089Z,13.30
2019-05-18T05:35:51.141Z,12.10
2019-05-18T05:38:32.815Z,12.87
2019-05-18T05:41:16.675Z,13.40
2019-05-18T05:43:46.127Z,13.80
2019-05-18T05:46:37.325Z,12.93
2019-05-18T05:49:25.842Z,13.57
2019-05-18T05:51:55.639Z,13.30
2019-05-18T05:54:25.364Z,12.97
2019-05-18T05:56:55.262Z,14.73
2019-05-18T05:59:44.610Z,13.30
2019-05-18T06:02:33.094Z,13.37
2019-05-18T06:05:22.206Z,13.47
2019-05-18T06:08:11.153Z,9.90
2019-05-18T06:11:00.370Z,7.27
2019-05-18T06:13:49.342Z,8.13
2019-05-18T06:16:38.332Z,7.67
2019-05-18T06:19:27.268Z,8.30
2019-05-18T06:22:16.273Z,7.20
2019-05-18T06:25:05.679Z,7.00
2019-05-18T06:27:54.619Z,8.80
2019-05-18T06:33:52.150Z,7.43
2019-05-18T06:36:41.423Z,7.87
2019-05-18T06:39:30.637Z,6.70
2019-05-18T06:42:19.872Z,6.10
2019-05-18T06:45:09.139Z,6.20
2019-05-18T06:47:58.111Z,6.40
2019-05-18T06:50:47.482Z,6.70
2019-05-18T06:53:36.726Z,6.57
2019-05-18T06:56:25.931Z,6.90
2019-05-18T06:59:16.455Z,6.73
2019-05-18T07:02:24.731Z,6.57
2019-05-18T07:05:13.734Z,6.57
2019-05-18T07:11:16.199Z,6.40
2019-05-18T07:13:57.695Z,6.70
2019-05-18T07:16:39.938Z,22.70
2019-05-18T07:19:25.095Z,8.13
2019-05-18T07:22:07.063Z,9.13
2019-05-18T07:25:13.383Z,7.40
2019-05-18T07:28:01.707Z,7.57
2019-05-18T07:30:47.219Z,8.67
2019-05-18T07:33:28.831Z,8.40
2019-05-18T07:36:10.877Z,9.20
2019-05-18T07:38:52.735Z,8.60
2019-05-18T07:44:17.832Z,8.40
2019-05-18T07:49:42.057Z,8.50
2019-05-18T07:52:23.714Z,7.90
2019-05-18T07:55:09.028Z,8.00
2019-05-18T08:00:33.973Z,8.33
2019-05-18T08:03:15.252Z,7.70
2019-05-18T08:05:57.432Z,7.20
2019-05-18T08:08:38.906Z,7.50
2019-05-18T08:11:20.951Z,7.20
2019-05-18T08:19:28.275Z,7.27
2019-05-18T08:22:17.291Z,8.27
2019-05-18T08:25:06.458Z,7.57
2019-05-18T08:31:03.686Z,6.90
2019-05-18T08:33:52.583Z,6.93
2019-05-18T08:43:10.102Z,7.70
2019-05-18T08:52:26.231Z,7.57
2019-05-18T08:55:15.235Z,8.03
2019-05-18T08:58:06.263Z,7.97
2019-05-18T09:00:55.674Z,8.30
2019-05-18T09:03:44.618Z,8.03
2019-05-18T09:06:33.615Z,8.17
2019-05-18T09:09:22.842Z,7.27
2019-05-18T09:12:04.115Z,8.27
2019-05-18T09:14:46.122Z,8.03
2019-05-18T09:17:27.434Z,8.37
2019-05-18T09:20:09.749Z,8.27
2019-05-18T09:22:50.967Z,8.67
2019-05-18T09:25:32.998Z,8.53
2019-05-18T09:28:15.103Z,7.93
2019-05-18T09:30:56.427Z,8.33
2019-05-18T09:33:38.807Z,7.00
2019-05-18T09:36:21.019Z,7.47
2019-05-18T09:39:04.149Z,6.97
2019-05-18T09:41:46.065Z,7.17
2019-05-18T09:44:28.391Z,7.37
2019-05-18T09:47:10.502Z,6.43
2019-05-18T09:52:44.775Z,6.60
2019-05-18T09:58:01.701Z,6.83
2019-05-18T10:00:43.368Z,6.80
2019-05-18T10:03:24.855Z,6.53
2019-05-18T10:06:06.981Z,6.33
2019-05-18T10:08:49.154Z,7.07
2019-05-18T10:11:37.927Z,6.33
2019-05-18T10:16:57.095Z,6.00
2019-05-18T10:19:39.099Z,6.30
2019-05-18T10:22:21.011Z,6.07
2019-05-18T10:25:02.849Z,5.83
2019-05-18T10:27:44.642Z,5.50
2019-05-18T10:30:15.206Z,5.70
2019-05-18T10:36:18.330Z,5.23
2019-05-18T10:39:07.515Z,4.43
2019-05-18T10:41:56.754Z,5.30
2019-05-18T10:45:06.254Z,5.43
2019-05-18T10:47:55.255Z,4.93
2019-05-18T10:50:44.377Z,5.03
2019-05-18T10:53:33.294Z,5.10
2019-05-18T10:56:22.291Z,5.20
2019-05-18T11:02:19.180Z,4.90
2019-05-18T11:05:08.758Z,4.37
2019-05-18T11:07:50.585Z,4.97
2019-05-18T11:10:32.248Z,4.60
2019-05-18T11:13:17.013Z,5.37
2019-05-18T11:15:57.258Z,5.93
2019-05-18T11:18:39.698Z,5.10
2019-05-18T11:21:21.206Z,4.50
2019-05-18T11:24:03.338Z,4.60
2019-05-18T11:26:45.543Z,4.27
2019-05-18T11:29:27.657Z,4.30
2019-05-18T11:32:09.678Z,4.80
2019-05-18T11:37:33.682Z,4.43
2019-05-18T11:40:15.301Z,3.83
2019-05-18T11:42:56.571Z,4.33
2019-05-18T11:45:38.253Z,3.93
2019-05-18T11:48:20.939Z,4.47
2019-05-18T11:53:57.451Z,3.80
2019-05-18T11:56:28.750Z,3.97
2019-05-18T11:58:58.518Z,4.03
2019-05-18T12:01:40.119Z,4.00
2019-05-18T12:04:22.567Z,7.17
2019-05-18T12:07:04.542Z,5.53
2019-05-18T12:09:46.784Z,6.17
2019-05-18T12:12:28.920Z,5.03
2019-05-18T12:15:11.064Z,4.77
2019-05-18T12:17:52.615Z,4.33
2019-05-18T12:20:34.495Z,4.67
2019-05-18T12:23:16.482Z,4.30
2019-05-18T12:25:58.011Z,4.27
2019-05-18T12:31:41.278Z,3.90
2019-05-18T12:34:30.247Z,3.87
2019-05-18T12:37:38.618Z,3.50
2019-05-18T12:43:35.592Z,5.30
2019-05-18T12:49:32.978Z,4.70
2019-05-18T12:55:29.884Z,4.40
2019-05-18T13:01:25.654Z,2.00
2019-05-18T13:04:07.112Z,1.60
2019-05-18T13:06:49.099Z,1.10
2019-05-18T13:09:19.632Z,1.50
2019-05-18T13:11:49.362Z,1.40
2019-05-18T13:14:38.411Z,1.20
2019-05-18T13:17:27.383Z,1.10
2019-05-18T13:20:16.685Z,1.70
2019-05-18T13:23:05.619Z,1.63
2019-05-18T13:25:54.775Z,1.53
2019-05-18T13:28:43.710Z,1.40
2019-05-18T13:31:32.643Z,1.10
2019-05-18T13:34:21.557Z,1.33
2019-05-18T13:37:10.463Z,1.33
2019-05-18T13:39:59.742Z,1.30
2019-05-18T13:42:48.990Z,1.67
2019-05-18T13:45:37.883Z,1.17
2019-05-18T13:58:01.777Z,2.10
2019-05-18T14:00:43.670Z,2.17
2019-05-18T14:03:25.471Z,2.00
2019-05-18T14:06:07.192Z,2.23
2019-05-18T14:08:49.263Z,3.60
2019-05-18T14:11:30.549Z,5.50
2019-05-18T14:14:12.603Z,4.87
2019-05-18T14:16:42.894Z,5.13
2019-05-18T14:19:31.851Z,5.30
2019-05-18T14:25:34.222Z,5.90
2019-05-18T14:28:23.160Z,8.67
2019-05-18T14:31:12.110Z,3.97
2019-05-18T14:36:55.986Z,5.47
2019-05-18T14:39:44.998Z,4.13
2019-05-18T14:42:34.007Z,3.17
2019-05-18T14:45:23.006Z,2.90
2019-05-18T14:48:12.227Z,3.17
2019-05-18T14:50:41.936Z,2.00
2019-05-18T14:53:32.543Z,1.70
2019-05-18T14:59:30.514Z,1.30
2019-05-18T15:05:27.544Z,1.90
2019-05-18T15:11:30.184Z,2.67
2019-05-18T15:14:19.122Z,2.30
2019-05-18T15:20:16.149Z,2.60
2019-05-18T15:23:05.035Z,3.03
2019-05-18T15:25:53.951Z,4.70
2019-05-18T15:28:42.846Z,3.57
2019-05-18T15:31:32.004Z,2.33
2019-05-18T15:37:35.003Z,4.90
2019-05-18T15:40:05.043Z,4.67
2019-05-18T15:42:54.374Z,2.27
2019-05-18T15:45:24.815Z,5.97
2019-05-18T15:48:15.270Z,6.50
2019-05-18T15:51:04.266Z,2.10
2019-05-18T15:53:53.266Z,1.90
2019-05-18T15:56:44.226Z,2.00
2019-05-18T15:59:52.425Z,1.57
2019-05-18T16:02:41.677Z,1.50
2019-05-18T16:05:30.842Z,2.07
2019-05-18T16:08:19.981Z,1.80
2019-05-18T16:11:09.263Z,2.83
2019-05-18T16:17:12.569Z,1.90
2019-05-18T16:20:01.823Z,1.70
2019-05-18T16:22:31.811Z,2.23
2019-05-18T16:25:20.827Z,2.00
2019-05-18T16:31:18.087Z,1.70
2019-05-18T16:33:47.912Z,2.00
2019-05-18T16:36:37.192Z,1.87
2019-05-18T16:42:27.310Z,1.70
2019-05-18T16:48:11.282Z,1.70
2019-05-18T16:50:53.506Z,1.87
2019-05-18T16:56:18.354Z,1.87
2019-05-18T16:59:00.582Z,1.67
2019-05-18T17:01:42.537Z,1.70
2019-05-18T17:04:24.718Z,1.70
2019-05-18T17:07:06.891Z,2.07
2019-05-18T17:09:49.191Z,2.20
2019-05-18T17:12:31.171Z,1.77
2019-05-18T17:15:13.361Z,2.33
2019-05-18T17:17:54.693Z,2.10
2019-05-18T17:20:36.685Z,1.70
2019-05-18T17:23:19.027Z,2.10
2019-05-18T17:26:00.448Z,1.57
2019-05-18T17:28:42.011Z,7.17
2019-05-18T17:31:24.238Z,2.40
2019-05-18T17:34:06.462Z,2.20
2019-05-18T17:36:52.353Z,3.30
2019-05-18T17:39:31.481Z,3.83
2019-05-18T17:42:12.745Z,23.93
2019-05-18T17:44:54.758Z,10.00
2019-05-18T17:47:36.878Z,5.27
2019-05-18T17:50:18.820Z,3.33
2019-05-18T17:52:48.700Z,1.90
2019-05-18T17:55:18.690Z,2.27
2019-05-18T17:57:48.740Z,2.40
2019-05-18T18:00:19.947Z,1.90
2019-05-18T18:03:08.867Z,2.50
2019-05-18T18:05:57.907Z,2.80
2019-05-18T18:08:47.144Z,3.50
2019-05-18T18:11:36.253Z,2.67
2019-05-18T18:14:25.321Z,4.10
2019-05-18T18:17:17.577Z,4.07
2019-05-18T18:20:24.324Z,3.67
2019-05-18T18:23:13.361Z,4.03
2019-05-18T18:26:02.338Z,3.70
2019-05-18T18:28:51.402Z,4.33
2019-05-18T18:31:33.517Z,4.13
2019-05-18T18:34:15.142Z,6.27
2019-05-18T18:36:57.188Z,5.87
2019-05-18T18:39:39.288Z,4.00
2019-05-18T18:42:21.489Z,5.77
2019-05-18T18:45:06.946Z,5.67
2019-05-18T18:47:48.948Z,3.90
2019-05-18T18:50:30.966Z,3.50
2019-05-18T18:53:13.290Z,3.60
2019-05-18T18:58:26.444Z,5.50
2019-05-18T19:00:56.210Z,5.90
2019-05-18T19:03:26.010Z,4.60
2019-05-18T19:06:14.963Z,2.50
2019-05-18T19:08:44.797Z,3.80
2019-05-18T19:11:14.750Z,5.60
2019-05-18T19:14:03.822Z,3.90
2019-05-18T19:16:52.787Z,3.87
2019-05-18T19:22:56.334Z,4.07
2019-05-18T19:25:38.182Z,3.87
2019-05-18T19:28:20.032Z,2.73
2019-05-18T19:31:02.343Z,2.90
2019-05-18T19:33:45.140Z,3.40
2019-05-18T19:36:26.928Z,4.60
2019-05-18T19:39:08.788Z,4.00
2019-05-18T19:44:34.116Z,6.93
2019-05-18T19:47:16.006Z,3.80
2019-05-18T19:49:57.288Z,3.50
2019-05-18T19:55:26.531Z,4.80
2019-05-18T20:00:39.449Z,5.30
2019-05-18T20:03:28.393Z,5.30
2019-05-18T20:06:17.624Z,5.03
2019-05-18T20:12:15.267Z,4.47
2019-05-18T20:15:04.511Z,3.83
2019-05-18T20:17:53.449Z,3.73
2019-05-18T20:27:10.205Z,4.20
2019-05-18T20:29:59.506Z,4.50
2019-05-18T20:32:48.474Z,4.70
2019-05-18T20:35:37.410Z,4.57
2019-05-18T20:38:26.364Z,5.80
2019-05-18T20:41:15.705Z,5.90
2019-05-18T20:44:04.867Z,5.20
2019-05-18T20:46:53.906Z,4.10
2019-05-18T20:49:43.055Z,3.73
2019-05-18T20:52:31.971Z,4.87
2019-05-18T20:55:02.653Z,4.97
2019-05-18T20:57:51.667Z,4.80
2019-05-18T21:00:21.951Z,3.97
2019-05-18T21:02:51.802Z,4.00
2019-05-18T21:05:21.958Z,4.00
2019-05-18T21:07:52.012Z,3.53
2019-05-18T21:10:21.818Z,3.10
2019-05-18T21:13:10.882Z,3.20
2019-05-18T21:15:52.327Z,3.70
2019-05-18T21:18:34.763Z,4.00
2019-05-18T21:21:16.355Z,3.90
2019-05-18T21:23:58.553Z,4.50
2019-05-18T21:26:40.930Z,4.50
2019-05-18T21:32:07.822Z,5.03
2019-05-18T21:34:50.828Z,5.20
2019-05-18T21:37:34.066Z,5.33
2019-05-18T21:40:16.223Z,6.00
2019-05-18T21:42:58.694Z,6.43
2019-05-18T21:45:40.318Z,5.03
2019-05-18T21:48:22.083Z,4.80
2019-05-18T21:51:04.038Z,4.90
2019-05-18T21:56:28.872Z,6.40
2019-05-18T21:59:12.349Z,6.13
2019-05-18T22:01:57.659Z,6.30
2019-05-18T22:07:22.218Z,6.03
2019-05-18T22:10:04.400Z,6.13
2019-05-18T22:12:34.252Z,6.30
2019-05-18T22:15:23.607Z,7.30
2019-05-18T22:21:27.269Z,6.13
2019-05-18T22:24:16.178Z,6.30
2019-05-18T22:27:05.159Z,6.13
2019-05-18T22:29:54.072Z,6.43
2019-05-18T22:35:56.519Z,6.03
2019-05-18T22:41:54.092Z,6.23
2019-05-18T22:44:43.623Z,7.00
2019-05-18T22:47:32.547Z,6.87
2019-05-18T22:50:21.583Z,6.77
2019-05-18T22:53:10.673Z,6.90
2019-05-18T22:55:59.998Z,7.00
2019-05-18T22:58:48.944Z,6.43
2019-05-18T23:01:40.822Z,6.63
2019-05-18T23:07:17.270Z,6.57
2019-05-18T23:09:59.398Z,6.97
2019-05-18T23:12:42.530Z,7.27
2019-05-18T23:15:24.128Z,6.43
2019-05-18T23:18:06.368Z,6.40
2019-05-18T23:20:48.132Z,6.60
2019-05-18T23:23:30.246Z,6.70
2019-05-18T23:26:12.246Z,6.80
2019-05-18T23:28:42.050Z,7.20
2019-05-18T23:31:12.038Z,7.53
2019-05-18T23:34:01.230Z,8.13
2019-05-18T23:36:50.379Z,8.20
2019-05-18T23:39:39.805Z,7.97
2019-05-18T23:42:28.845Z,9.73
2019-05-18T23:45:17.765Z,8.97
2019-05-18T23:51:20.620Z,8.43
2019-05-18T23:57:23.463Z,9.60
